sensor_id;sensor_type;location;lat;lon;timestamp;pressure;altitude;pressure_sealevel;temperature;humidity
18137;BME280;9194;42.632;23.298;2022-07-29T00:02:15;92756.78;;;17.79;100.00
18137;BME280;9194;42.632;23.298;2022-07-29T00:07:17;92772.28;;;17.65;100.00
18137;BME280;9194;42.632;23.298;2022-07-29T00:12:23;92788.25;;;17.44;100.00
18137;BME280;9194;42.632;23.298;2022-07-29T00:17:25;92789.31;;;17.48;100.00
18137;BME280;9194;42.632;23.298;2022-07-29T00:22:26;92788.03;;;17.50;100.00
18137;BME280;9194;42.632;23.298;2022-07-29T00:27:28;92783.88;;;17.64;100.00
18137;BME280;9194;42.632;23.298;2022-07-29T00:32:29;92783.56;;;17.56;100.00
18137;BME280;9194;42.632;23.298;2022-07-29T00:37:30;92781.97;;;17.55;100.00
18137;BME280;9194;42.632;23.298;2022-07-29T00:42:44;92783.53;;;17.46;100.00
18137;BME280;9194;42.632;23.298;2022-07-29T00:47:46;92787.47;;;17.43;100.00
18137;BME280;9194;42.632;23.298;2022-07-29T00:52:47;92794.28;;;17.34;100.00
18137;BME280;9194;42.632;23.298;2022-07-29T00:57:48;92794.53;;;17.33;100.00
18137;BME280;9194;42.632;23.298;2022-07-29T01:02:50;92785.59;;;17.34;100.00
18137;BME280;9194;42.632;23.298;2022-07-29T01:07:53;92793.75;;;17.32;100.00
18137;BME280;9194;42.632;23.298;2022-07-29T01:12:58;92771.66;;;17.38;100.00
18137;BME280;9194;42.632;23.298;2022-07-29T01:33:50;92760.81;;;17.24;100.00
18137;BME280;9194;42.632;23.298;2022-07-29T01:39:27;92757.22;;;17.41;100.00
18137;BME280;9194;42.632;23.298;2022-07-29T01:44:34;92756.88;;;17.27;100.00
18137;BME280;9194;42.632;23.298;2022-07-29T01:49:36;92762.94;;;17.28;100.00
18137;BME280;9194;42.632;23.298;2022-07-29T01:55:06;92752.19;;;17.34;100.00
18137;BME280;9194;42.632;23.298;2022-07-29T02:00:09;92745.59;;;17.37;100.00
18137;BME280;9194;42.632;23.298;2022-07-29T02:05:16;92754.00;;;17.29;100.00
18137;BME280;9194;42.632;23.298;2022-07-29T02:10:21;92751.16;;;17.40;100.00
18137;BME280;9194;42.632;23.298;2022-07-29T02:15:24;92738.50;;;17.47;100.00
18137;BME280;9194;42.632;23.298;2022-07-29T02:20:28;92733.78;;;17.49;100.00
18137;BME280;9194;42.632;23.298;2022-07-29T02:25:30;92730.94;;;17.61;100.00
18137;BME280;9194;42.632;23.298;2022-07-29T02:30:32;92732.50;;;17.52;100.00
18137;BME280;9194;42.632;23.298;2022-07-29T02:35:36;92730.66;;;17.52;100.00
18137;BME280;9194;42.632;23.298;2022-07-29T02:40:39;92716.69;;;17.52;100.00
18137;BME280;9194;42.632;23.298;2022-07-29T02:45:43;92702.50;;;17.53;100.00
18137;BME280;9194;42.632;23.298;2022-07-29T02:50:51;92703.84;;;17.60;100.00
18137;BME280;9194;42.632;23.298;2022-07-29T02:55:59;92691.75;;;17.64;100.00
18137;BME280;9194;42.632;23.298;2022-07-29T03:01:12;92709.09;;;17.60;100.00
18137;BME280;9194;42.632;23.298;2022-07-29T03:06:17;92717.75;;;17.46;100.00
18137;BME280;9194;42.632;23.298;2022-07-29T03:11:19;92711.13;;;17.33;100.00
18137;BME280;9194;42.632;23.298;2022-07-29T03:16:21;92715.59;;;17.28;100.00
18137;BME280;9194;42.632;23.298;2022-07-29T03:21:24;92715.56;;;17.22;100.00
18137;BME280;9194;42.632;23.298;2022-07-29T03:26:26;92729.78;;;17.27;100.00
18137;BME280;9194;42.632;23.298;2022-07-29T03:31:31;92732.16;;;17.18;100.00
18137;BME280;9194;42.632;23.298;2022-07-29T03:36:32;92736.06;;;17.15;100.00
18137;BME280;9194;42.632;23.298;2022-07-29T03:41:35;92727.91;;;17.12;100.00
18137;BME280;9194;42.632;23.298;2022-07-29T03:46:39;92727.91;;;17.12;100.00
18137;BME280;9194;42.632;23.298;2022-07-29T03:51:40;92727.66;;;17.18;100.00
18137;BME280;9194;42.632;23.298;2022-07-29T03:56:44;92735.28;;;17.25;100.00
18137;BME280;9194;42.632;23.298;2022-07-29T04:01:49;92733.19;;;17.22;100.00
18137;BME280;9194;42.632;23.298;2022-07-29T04:07:13;92741.91;;;17.28;100.00
18137;BME280;9194;42.632;23.298;2022-07-29T04:12:40;92748.00;;;17.43;100.00
18137;BME280;9194;42.632;23.298;2022-07-29T04:17:52;92741.19;;;17.57;100.00
18137;BME280;9194;42.632;23.298;2022-07-29T04:22:53;92743.88;;;17.73;100.00
18137;BME280;9194;42.632;23.298;2022-07-29T04:27:55;92734.41;;;17.87;100.00
18137;BME280;9194;42.632;23.298;2022-07-29T04:33:04;92738.38;;;17.99;100.00
18137;BME280;9194;42.632;23.298;2022-07-29T04:38:06;92731.78;;;18.12;100.00
18137;BME280;9194;42.632;23.298;2022-07-29T04:43:07;92746.00;;;18.31;100.00
18137;BME280;9194;42.632;23.298;2022-07-29T04:48:08;92752.31;;;18.45;100.00
18137;BME280;9194;42.632;23.298;2022-07-29T04:53:10;92740.97;;;18.65;100.00
18137;BME280;9194;42.632;23.298;2022-07-29T04:58:18;92756.47;;;18.92;100.00
18137;BME280;9194;42.632;23.298;2022-07-29T05:03:24;92756.84;;;19.29;100.00
18137;BME280;9194;42.632;23.298;2022-07-29T05:08:25;92762.66;;;19.32;100.00
18137;BME280;9194;42.632;23.298;2022-07-29T05:13:27;92758.94;;;19.38;100.00
18137;BME280;9194;42.632;23.298;2022-07-29T05:18:29;92763.41;;;19.47;100.00
18137;BME280;9194;42.632;23.298;2022-07-29T05:23:30;92761.53;;;19.53;100.00
18137;BME280;9194;42.632;23.298;2022-07-29T05:28:35;92765.69;;;19.64;100.00
18137;BME280;9194;42.632;23.298;2022-07-29T05:33:36;92761.59;;;19.87;100.00
18137;BME280;9194;42.632;23.298;2022-07-29T05:38:37;92758.31;;;20.05;100.00
18137;BME280;9194;42.632;23.298;2022-07-29T05:49:39;92759.72;;;20.31;100.00
18137;BME280;9194;42.632;23.298;2022-07-29T05:54:40;92764.91;;;20.46;100.00
18137;BME280;9194;42.632;23.298;2022-07-29T05:59:42;92775.91;;;20.59;100.00
18137;BME280;9194;42.632;23.298;2022-07-29T06:04:43;92777.63;;;20.73;100.00
18137;BME280;9194;42.632;23.298;2022-07-29T06:09:45;92777.53;;;20.83;100.00
18137;BME280;9194;42.632;23.298;2022-07-29T06:14:46;92785.31;;;20.99;100.00
18137;BME280;9194;42.632;23.298;2022-07-29T06:19:53;92778.25;;;21.18;100.00
18137;BME280;9194;42.632;23.298;2022-07-29T06:24:54;92777.63;;;21.26;100.00
18137;BME280;9194;42.632;23.298;2022-07-29T06:29:56;92780.09;;;21.41;100.00
18137;BME280;9194;42.632;23.298;2022-07-29T06:34:57;92777.25;;;21.56;100.00
18137;BME280;9194;42.632;23.298;2022-07-29T06:39:58;92774.72;;;21.70;100.00
18137;BME280;9194;42.632;23.298;2022-07-29T06:45:45;92774.50;;;21.85;100.00
18137;BME280;9194;42.632;23.298;2022-07-29T06:50:46;92768.31;;;21.95;100.00
18137;BME280;9194;42.632;23.298;2022-07-29T06:55:48;92771.31;;;22.07;100.00
18137;BME280;9194;42.632;23.298;2022-07-29T07:00:49;92775.09;;;22.20;100.00
18137;BME280;9194;42.632;23.298;2022-07-29T07:05:52;92770.06;;;22.37;100.00
18137;BME280;9194;42.632;23.298;2022-07-29T07:10:53;92762.66;;;22.52;100.00
18137;BME280;9194;42.632;23.298;2022-07-29T07:15:56;92764.63;;;22.61;100.00
18137;BME280;9194;42.632;23.298;2022-07-29T07:20:57;92771.59;;;22.89;100.00
18137;BME280;9194;42.632;23.298;2022-07-29T07:25:59;92766.53;;;23.20;96.71
18137;BME280;9194;42.632;23.298;2022-07-29T07:31:00;92759.56;;;23.51;97.09
18137;BME280;9194;42.632;23.298;2022-07-29T07:36:01;92755.06;;;23.52;93.02
18137;BME280;9194;42.632;23.298;2022-07-29T07:41:03;92764.50;;;23.58;95.94
18137;BME280;9194;42.632;23.298;2022-07-29T07:46:05;92762.41;;;23.55;94.12
18137;BME280;9194;42.632;23.298;2022-07-29T07:51:06;92762.41;;;23.68;94.13
18137;BME280;9194;42.632;23.298;2022-07-29T07:56:18;92764.44;;;23.85;92.29
18137;BME280;9194;42.632;23.298;2022-07-29T08:01:19;92765.63;;;23.93;89.19
18137;BME280;9194;42.632;23.298;2022-07-29T08:06:23;92759.56;;;24.01;88.65
18137;BME280;9194;42.632;23.298;2022-07-29T08:11:26;92762.41;;;24.18;87.81
18137;BME280;9194;42.632;23.298;2022-07-29T08:16:27;92761.69;;;24.26;84.16
18137;BME280;9194;42.632;23.298;2022-07-29T08:21:29;92766.84;;;24.45;85.26
18137;BME280;9194;42.632;23.298;2022-07-29T08:26:31;92764.47;;;24.66;79.56
18137;BME280;9194;42.632;23.298;2022-07-29T08:31:32;92759.75;;;24.85;77.41
18137;BME280;9194;42.632;23.298;2022-07-29T08:36:34;92761.16;;;25.13;75.26
18137;BME280;9194;42.632;23.298;2022-07-29T08:41:35;92769.53;;;25.29;77.35
18137;BME280;9194;42.632;23.298;2022-07-29T08:46:38;92753.41;;;25.34;67.82
18137;BME280;9194;42.632;23.298;2022-07-29T08:51:41;92758.56;;;25.30;77.04
18137;BME280;9194;42.632;23.298;2022-07-29T08:56:42;92760.63;;;24.49;71.08
18137;BME280;9194;42.632;23.298;2022-07-29T09:01:45;92759.50;;;23.92;78.96
18137;BME280;9194;42.632;23.298;2022-07-29T09:06:49;92752.75;;;23.59;90.13
18137;BME280;9194;42.632;23.298;2022-07-29T09:11:52;92754.25;;;23.51;86.72
18137;BME280;9194;42.632;23.298;2022-07-29T09:16:55;92749.81;;;24.46;81.75
18137;BME280;9194;42.632;23.298;2022-07-29T09:21:58;92742.75;;;25.34;77.89
18137;BME280;9194;42.632;23.298;2022-07-29T09:27:00;92743.06;;;25.89;67.67
18137;BME280;9194;42.632;23.298;2022-07-29T09:32:11;92751.59;;;26.43;67.27
18137;BME280;9194;42.632;23.298;2022-07-29T09:37:26;92746.34;;;26.81;65.83
18137;BME280;9194;42.632;23.298;2022-07-29T09:42:29;92745.47;;;26.25;66.25
18137;BME280;9194;42.632;23.298;2022-07-29T09:47:48;92750.78;;;25.43;71.81
18137;BME280;9194;42.632;23.298;2022-07-29T09:52:51;92746.34;;;24.99;78.43
18137;BME280;9194;42.632;23.298;2022-07-29T09:57:53;92738.09;;;24.78;86.21
18137;BME280;9194;42.632;23.298;2022-07-29T10:02:59;92730.06;;;24.47;88.11
18137;BME280;9194;42.632;23.298;2022-07-29T10:08:02;92728.97;;;24.48;88.77
18137;BME280;9194;42.632;23.298;2022-07-29T10:13:10;92717.09;;;24.45;91.08
18137;BME280;9194;42.632;23.298;2022-07-29T10:18:12;92712.59;;;24.54;91.95
18137;BME280;9194;42.632;23.298;2022-07-29T10:23:14;92712.94;;;25.23;89.01
18137;BME280;9194;42.632;23.298;2022-07-29T10:28:18;92704.50;;;25.30;84.16
18137;BME280;9194;42.632;23.298;2022-07-29T10:39:11;92697.22;;;25.70;79.77
18137;BME280;9194;42.632;23.298;2022-07-29T10:44:18;92699.50;;;25.46;79.03
18137;BME280;9194;42.632;23.298;2022-07-29T10:49:22;92685.78;;;25.69;84.00
18137;BME280;9194;42.632;23.298;2022-07-29T11:05:06;92672.88;;;27.51;63.59
18137;BME280;9194;42.632;23.298;2022-07-29T11:15:20;92678.38;;;27.16;64.65
18137;BME280;9194;42.632;23.298;2022-07-29T11:25:42;92665.66;;;26.58;67.87
18137;BME280;9194;42.632;23.298;2022-07-29T11:30:48;92663.44;;;26.69;65.71
18137;BME280;9194;42.632;23.298;2022-07-29T11:36:10;92663.16;;;26.62;66.03
18137;BME280;9194;42.632;23.298;2022-07-29T11:46:47;92658.34;;;27.31;74.74
18137;BME280;9194;42.632;23.298;2022-07-29T11:51:54;92646.72;;;27.56;80.18
18137;BME280;9194;42.632;23.298;2022-07-29T11:56:57;92641.75;;;28.29;71.02
18137;BME280;9194;42.632;23.298;2022-07-29T12:01:59;92645.75;;;28.23;66.88
18137;BME280;9194;42.632;23.298;2022-07-29T12:07:00;92643.31;;;28.63;62.04
18137;BME280;9194;42.632;23.298;2022-07-29T12:12:02;92641.63;;;28.58;59.41
18137;BME280;9194;42.632;23.298;2022-07-29T12:17:03;92644.25;;;27.72;63.42
18137;BME280;9194;42.632;23.298;2022-07-29T12:22:04;92648.56;;;26.97;69.16
18137;BME280;9194;42.632;23.298;2022-07-29T12:27:05;92643.69;;;27.08;74.63
18137;BME280;9194;42.632;23.298;2022-07-29T12:32:07;92639.88;;;27.67;62.82
18137;BME280;9194;42.632;23.298;2022-07-29T12:37:08;92638.44;;;28.11;55.99
18137;BME280;9194;42.632;23.298;2022-07-29T12:42:15;92628.22;;;28.26;56.12
18137;BME280;9194;42.632;23.298;2022-07-29T12:47:17;92634.00;;;28.15;57.78
18137;BME280;9194;42.632;23.298;2022-07-29T12:52:33;92631.78;;;27.76;57.51
18137;BME280;9194;42.632;23.298;2022-07-29T12:57:49;92621.34;;;27.83;57.71
18137;BME280;9194;42.632;23.298;2022-07-29T13:02:59;92616.66;;;28.01;56.92
18137;BME280;9194;42.632;23.298;2022-07-29T13:08:14;92602.34;;;28.17;55.26
18137;BME280;9194;42.632;23.298;2022-07-29T13:13:16;92607.16;;;28.24;54.95
18137;BME280;9194;42.632;23.298;2022-07-29T13:18:29;92600.72;;;28.37;53.93
18137;BME280;9194;42.632;23.298;2022-07-29T13:23:31;92602.03;;;28.31;56.06
18137;BME280;9194;42.632;23.298;2022-07-29T13:28:33;92594.56;;;28.25;53.34
18137;BME280;9194;42.632;23.298;2022-07-29T13:33:35;92585.31;;;28.01;53.80
18137;BME280;9194;42.632;23.298;2022-07-29T13:38:36;92587.31;;;28.04;53.70
18137;BME280;9194;42.632;23.298;2022-07-29T13:43:37;92574.25;;;28.24;53.57
18137;BME280;9194;42.632;23.298;2022-07-29T13:48:38;92578.16;;;28.26;53.04
18137;BME280;9194;42.632;23.298;2022-07-29T13:53:40;92573.34;;;28.19;53.18
18137;BME280;9194;42.632;23.298;2022-07-29T13:58:41;92585.28;;;28.22;53.33
18137;BME280;9194;42.632;23.298;2022-07-29T14:03:42;92572.91;;;28.17;51.86
18137;BME280;9194;42.632;23.298;2022-07-29T14:08:44;92581.06;;;28.33;52.03
18137;BME280;9194;42.632;23.298;2022-07-29T14:13:45;92583.16;;;28.15;52.16
18137;BME280;9194;42.632;23.298;2022-07-29T14:18:46;92584.19;;;28.02;52.10
18137;BME280;9194;42.632;23.298;2022-07-29T14:23:48;92572.22;;;28.21;51.92
18137;BME280;9194;42.632;23.298;2022-07-29T14:28:49;92575.00;;;28.57;51.79
18137;BME280;9194;42.632;23.298;2022-07-29T14:33:51;92574.81;;;28.98;51.34
18137;BME280;9194;42.632;23.298;2022-07-29T14:38:52;92573.03;;;29.03;52.67
18137;BME280;9194;42.632;23.298;2022-07-29T14:43:54;92579.16;;;29.15;53.86
18137;BME280;9194;42.632;23.298;2022-07-29T14:48:55;92569.41;;;29.47;53.73
18137;BME280;9194;42.632;23.298;2022-07-29T14:53:57;92573.69;;;29.36;52.83
18137;BME280;9194;42.632;23.298;2022-07-29T14:58:58;92583.88;;;28.94;51.35
18137;BME280;9194;42.632;23.298;2022-07-29T15:04:00;92573.47;;;28.80;51.70
18137;BME280;9194;42.632;23.298;2022-07-29T15:09:01;92580.88;;;28.50;52.29
18137;BME280;9194;42.632;23.298;2022-07-29T15:14:03;92567.91;;;28.28;53.31
18137;BME280;9194;42.632;23.298;2022-07-29T15:19:04;92570.16;;;28.05;53.59
18137;BME280;9194;42.632;23.298;2022-07-29T15:24:06;92570.91;;;27.94;53.17
18137;BME280;9194;42.632;23.298;2022-07-29T15:29:08;92554.00;;;27.81;53.88
18137;BME280;9194;42.632;23.298;2022-07-29T15:34:09;92563.03;;;27.56;55.90
18137;BME280;9194;42.632;23.298;2022-07-29T15:39:11;92562.97;;;27.14;58.01
18137;BME280;9194;42.632;23.298;2022-07-29T15:44:12;92559.03;;;26.91;59.24
18137;BME280;9194;42.632;23.298;2022-07-29T15:49:13;92561.34;;;26.63;60.94
18137;BME280;9194;42.632;23.298;2022-07-29T15:54:15;92564.78;;;26.26;65.29
18137;BME280;9194;42.632;23.298;2022-07-29T15:59:17;92561.28;;;26.34;66.25
18137;BME280;9194;42.632;23.298;2022-07-29T16:04:21;92554.91;;;26.26;67.13
18137;BME280;9194;42.632;23.298;2022-07-29T16:09:22;92556.19;;;26.03;68.07
18137;BME280;9194;42.632;23.298;2022-07-29T16:14:24;92560.13;;;25.88;67.98
18137;BME280;9194;42.632;23.298;2022-07-29T16:19:25;92554.97;;;25.57;72.38
18137;BME280;9194;42.632;23.298;2022-07-29T16:24:26;92562.94;;;25.23;83.66
18137;BME280;9194;42.632;23.298;2022-07-29T16:29:29;92557.09;;;24.95;85.78
18137;BME280;9194;42.632;23.298;2022-07-29T16:34:31;92556.56;;;24.76;86.39
18137;BME280;9194;42.632;23.298;2022-07-29T16:39:32;92564.09;;;24.74;86.04
18137;BME280;9194;42.632;23.298;2022-07-29T16:44:33;92563.38;;;24.90;84.06
18137;BME280;9194;42.632;23.298;2022-07-29T16:49:35;92567.16;;;24.98;82.32
18137;BME280;9194;42.632;23.298;2022-07-29T16:54:36;92567.63;;;25.09;80.73
18137;BME280;9194;42.632;23.298;2022-07-29T16:59:37;92567.00;;;25.12;89.99
18137;BME280;9194;42.632;23.298;2022-07-29T17:05:06;92572.00;;;25.05;91.88
18137;BME280;9194;42.632;23.298;2022-07-29T17:10:08;92566.81;;;25.00;91.55
18137;BME280;9194;42.632;23.298;2022-07-29T17:15:11;92572.72;;;24.79;93.97
18137;BME280;9194;42.632;23.298;2022-07-29T17:20:12;92575.41;;;24.40;95.51
18137;BME280;9194;42.632;23.298;2022-07-29T17:25:15;92578.44;;;24.02;95.94
18137;BME280;9194;42.632;23.298;2022-07-29T17:30:16;92575.94;;;23.75;96.50
18137;BME280;9194;42.632;23.298;2022-07-29T17:35:18;92573.38;;;23.48;94.16
18137;BME280;9194;42.632;23.298;2022-07-29T17:46:28;92574.34;;;23.02;86.72
18137;BME280;9194;42.632;23.298;2022-07-29T17:51:30;92577.41;;;22.96;81.79
18137;BME280;9194;42.632;23.298;2022-07-29T17:56:31;92581.38;;;22.84;83.08
18137;BME280;9194;42.632;23.298;2022-07-29T18:01:33;92581.94;;;22.68;88.50
18137;BME280;9194;42.632;23.298;2022-07-29T18:06:34;92588.13;;;22.49;92.24
18137;BME280;9194;42.632;23.298;2022-07-29T18:11:36;92592.06;;;22.38;90.66
18137;BME280;9194;42.632;23.298;2022-07-29T18:16:37;92602.25;;;22.31;87.93
18137;BME280;9194;42.632;23.298;2022-07-29T18:21:38;92601.56;;;22.26;89.23
18137;BME280;9194;42.632;23.298;2022-07-29T18:26:40;92598.31;;;22.15;90.58
18137;BME280;9194;42.632;23.298;2022-07-29T18:31:41;92610.47;;;22.02;91.42
18137;BME280;9194;42.632;23.298;2022-07-29T18:36:42;92614.31;;;21.91;92.31
18137;BME280;9194;42.632;23.298;2022-07-29T18:41:44;92616.94;;;21.78;94.09
18137;BME280;9194;42.632;23.298;2022-07-29T18:46:51;92615.84;;;21.79;81.06
18137;BME280;9194;42.632;23.298;2022-07-29T18:51:52;92626.22;;;22.13;70.87
18137;BME280;9194;42.632;23.298;2022-07-29T18:56:53;92625.28;;;22.49;63.91
18137;BME280;9194;42.632;23.298;2022-07-29T19:01:55;92619.09;;;22.95;61.12
18137;BME280;9194;42.632;23.298;2022-07-29T19:06:56;92624.69;;;23.07;60.54
18137;BME280;9194;42.632;23.298;2022-07-29T19:12:03;92633.16;;;23.09;59.45
18137;BME280;9194;42.632;23.298;2022-07-29T19:17:04;92631.88;;;23.07;59.45
18137;BME280;9194;42.632;23.298;2022-07-29T19:22:05;92634.91;;;23.14;59.05
18137;BME280;9194;42.632;23.298;2022-07-29T19:27:07;92641.81;;;23.15;59.30
18137;BME280;9194;42.632;23.298;2022-07-29T19:32:09;92641.41;;;23.21;58.37
18137;BME280;9194;42.632;23.298;2022-07-29T19:37:10;92650.06;;;23.13;58.35
18137;BME280;9194;42.632;23.298;2022-07-29T19:42:11;92647.72;;;23.12;58.83
18137;BME280;9194;42.632;23.298;2022-07-29T19:47:13;92651.34;;;23.16;58.20
18137;BME280;9194;42.632;23.298;2022-07-29T19:52:14;92649.59;;;23.11;57.96
18137;BME280;9194;42.632;23.298;2022-07-29T19:57:15;92650.06;;;23.13;57.98
18137;BME280;9194;42.632;23.298;2022-07-29T20:02:17;92650.47;;;23.07;58.12
18137;BME280;9194;42.632;23.298;2022-07-29T20:07:18;92645.38;;;23.10;58.08
18137;BME280;9194;42.632;23.298;2022-07-29T20:12:21;92645.31;;;23.24;58.33
18137;BME280;9194;42.632;23.298;2022-07-29T20:17:22;92640.22;;;23.14;58.65
18137;BME280;9194;42.632;23.298;2022-07-29T20:22:24;92637.28;;;23.15;58.87
18137;BME280;9194;42.632;23.298;2022-07-29T20:27:25;92645.25;;;23.15;59.21
18137;BME280;9194;42.632;23.298;2022-07-29T20:32:54;92642.78;;;23.19;59.15
18137;BME280;9194;42.632;23.298;2022-07-29T20:38:07;92645.75;;;23.17;59.90
18137;BME280;9194;42.632;23.298;2022-07-29T20:43:08;92644.28;;;23.11;60.14
18137;BME280;9194;42.632;23.298;2022-07-29T20:48:09;92647.03;;;23.06;60.32
18137;BME280;9194;42.632;23.298;2022-07-29T20:53:11;92645.16;;;23.07;61.27
18137;BME280;9194;42.632;23.298;2022-07-29T20:58:29;92650.78;;;23.05;61.23
18137;BME280;9194;42.632;23.298;2022-07-29T21:03:32;92644.41;;;23.06;61.66
18137;BME280;9194;42.632;23.298;2022-07-29T21:08:34;92643.59;;;23.06;61.57
18137;BME280;9194;42.632;23.298;2022-07-29T21:13:35;92640.56;;;22.99;62.52
18137;BME280;9194;42.632;23.298;2022-07-29T21:18:40;92632.47;;;22.90;63.57
18137;BME280;9194;42.632;23.298;2022-07-29T21:23:44;92641.72;;;22.79;65.09
18137;BME280;9194;42.632;23.298;2022-07-29T21:28:45;92638.06;;;22.61;66.46
18137;BME280;9194;42.632;23.298;2022-07-29T21:33:47;92645.41;;;22.50;67.27
18137;BME280;9194;42.632;23.298;2022-07-29T21:38:48;92635.88;;;22.49;66.17
18137;BME280;9194;42.632;23.298;2022-07-29T21:43:49;92641.00;;;22.46;66.11
18137;BME280;9194;42.632;23.298;2022-07-29T21:48:51;92646.41;;;22.54;66.13
18137;BME280;9194;42.632;23.298;2022-07-29T21:53:52;92635.97;;;22.44;67.62
18137;BME280;9194;42.632;23.298;2022-07-29T21:58:54;92634.81;;;22.50;67.90
18137;BME280;9194;42.632;23.298;2022-07-29T22:03:55;92626.47;;;22.57;68.24
18137;BME280;9194;42.632;23.298;2022-07-29T22:08:57;92629.41;;;22.69;65.25
18137;BME280;9194;42.632;23.298;2022-07-29T22:13:59;92623.31;;;22.69;71.21
18137;BME280;9194;42.632;23.298;2022-07-29T22:19:00;92633.13;;;22.41;72.98
18137;BME280;9194;42.632;23.298;2022-07-29T22:24:04;92642.91;;;22.13;76.86
18137;BME280;9194;42.632;23.298;2022-07-29T22:29:05;92648.66;;;21.83;82.37
18137;BME280;9194;42.632;23.298;2022-07-29T22:34:06;92652.41;;;21.44;87.41
18137;BME280;9194;42.632;23.298;2022-07-29T22:39:12;92656.19;;;21.19;89.08
18137;BME280;9194;42.632;23.298;2022-07-29T22:44:14;92646.97;;;20.93;91.36
18137;BME280;9194;42.632;23.298;2022-07-29T22:49:15;92651.38;;;20.79;90.96
18137;BME280;9194;42.632;23.298;2022-07-29T22:54:16;92652.06;;;20.66;93.28
18137;BME280;9194;42.632;23.298;2022-07-29T22:59:18;92650.41;;;20.46;97.02
18137;BME280;9194;42.632;23.298;2022-07-29T23:04:19;92646.56;;;20.33;99.13
18137;BME280;9194;42.632;23.298;2022-07-29T23:09:23;92642.41;;;20.22;99.91
18137;BME280;9194;42.632;23.298;2022-07-29T23:14:25;92649.28;;;20.23;100.00
18137;BME280;9194;42.632;23.298;2022-07-29T23:19:26;92645.88;;;20.18;100.00
18137;BME280;9194;42.632;23.298;2022-07-29T23:24:27;92656.88;;;20.01;100.00
18137;BME280;9194;42.632;23.298;2022-07-29T23:29:55;92663.75;;;20.02;100.00
18137;BME280;9194;42.632;23.298;2022-07-29T23:40:49;92662.97;;;20.01;100.00
18137;BME280;9194;42.632;23.298;2022-07-29T23:45:50;92662.69;;;20.03;100.00
18137;BME280;9194;42.632;23.298;2022-07-29T23:50:51;92649.31;;;19.89;100.00
18137;BME280;9194;42.632;23.298;2022-07-29T23:55:53;92651.44;;;19.87;100.00
